Terminal Aerodrome Forecast
Issued by NWS

Home | Current Version | Previous Version | Text Only | Print | Product List | Glossary On
Versions: 1 2 3 4 5 6 7 8 9 10 11 12 13 14 15 16
186
FTUS44 KLZK 241140
TAFHOT
TAF
KHOT 241140Z 2412/2512 17005KT P6SM SCT025 OVC040
      TEMPO 2412/2415 OVC025
     FM241500 18008KT P6SM VCTS SCT030 OVC050CB
      TEMPO 2415/2419 5SM TSRA BR OVC030CB
     FM250000 18005KT P6SM OVC100=

USA.gov is the U.S. government's official web portal to all federal, state and local government web resources and services.